Time;durP1;ratioP1;P1;durP2;ratioP2;P2;SDS_P1;SDS_P2;PMS_P1;PMS_P2;Temp;Humidity;BMP_temperature;BMP_pressure;BME280_temperature;BME280_humidity;BME280_pressure;Samples;Min_cycle;Max_cycle;Signal;HPM_P1;HPM_P2
2022/08/03 00:02:22;;;;;;;;;;;22.00;81.50;;;;;;5117473;28;19945;-96
2022/08/03 00:04:47;;;;;;;;;;;22.10;81.60;;;;;;5117726;28;20402;-96
2022/08/03 00:07:13;;;;;;;;;;;22.10;81.50;;;;;;5117075;28;19944;-96
2022/08/03 00:09:39;;;;;;;;;;;22.00;81.30;;;;;;5117344;28;20088;-96
2022/08/03 00:12:04;;;;;;;;;;;22.00;80.70;;;;;;5117017;28;20395;-96
2022/08/03 00:14:30;;;;;;;;;;;22.00;80.50;;;;;;5117506;28;19941;-96
2022/08/03 00:16:56;;;;;;;;;;;22.10;80.10;;;;;;5117022;28;19944;-96
2022/08/03 00:19:22;;;;;;;;;;;22.20;79.90;;;;;;5117067;28;19940;-96
2022/08/03 00:21:47;;;;;;;;;;;22.20;80.00;;;;;;5116720;28;20439;-96
2022/08/03 00:24:13;;;;;;;;;;;22.30;80.00;;;;;;5098436;28;20038;-96
2022/08/03 00:26:38;;;;;;;;;;;22.30;79.70;;;;;;5117299;28;19942;-96
2022/08/03 00:29:04;;;;;;;;;;;22.30;79.30;;;;;;5116655;28;19936;-96
2022/08/03 00:31:29;;;;;;;;;;;22.40;78.20;;;;;;5116888;28;20380;-96
2022/08/03 00:33:55;;;;;;;;;;;22.40;78.50;;;;;;5116532;28;19967;-96
2022/08/03 00:36:20;;;;;;;;;;;22.40;78.50;;;;;;5116618;28;20412;-96
2022/08/03 00:38:46;;;;;;;;;;;22.40;76.70;;;;;;5116948;28;19964;-96
2022/08/03 00:41:11;;;;;;;;;;;22.60;76.80;;;;;;5098686;28;20069;-96
2022/08/03 00:43:37;;;;;;;;;;;22.50;79.00;;;;;;5117306;28;19982;-96
2022/08/03 00:46:02;;;;;;;;;;;22.50;78.60;;;;;;5117000;28;19938;-96
2022/08/03 00:48:28;;;;;;;;;;;22.40;78.30;;;;;;5117181;28;19943;-96
2022/08/03 00:50:54;;;;;;;;;;;22.30;79.50;;;;;;5116608;28;19990;-96
2022/08/03 00:53:19;;;;;;;;;;;22.20;79.70;;;;;;5116779;28;20395;-96
2022/08/03 00:55:45;;;;;;;;;;;22.10;79.90;;;;;;5116615;28;20555;-96
2022/08/03 00:58:10;;;;;;;;;;;22.00;79.70;;;;;;5116124;28;20022;-96
2022/08/03 01:00:37;;;;;;;;;;;22.00;80.20;;;;;;5116495;28;20317;-96
2022/08/03 01:03:07;;;;;;;;;;;21.80;80.60;;;;;;5115125;28;19945;-96
2022/08/03 01:05:37;;;;;;;;;;;21.80;80.60;;;;;;5116625;28;19941;-96
2022/08/03 01:08:07;;;;;;;;;;;21.40;80.50;;;;;;5116221;28;19964;-96
2022/08/03 01:11:08;;;;;;;;;;;21.30;79.00;;;;;;5116457;28;19935;-96
2022/08/03 01:13:38;;;;;;;;;;;21.50;78.60;;;;;;5013803;28;19946;-96
2022/08/03 01:16:18;;;;;;;;;;;21.80;76.60;;;;;;5097746;28;19937;-96
2022/08/03 01:18:48;;;;;;;;;;;21.90;75.80;;;;;;5116084;28;20490;-96
2022/08/03 01:21:18;;;;;;;;;;;22.00;76.60;;;;;;5115785;28;19943;-96
2022/08/03 01:24:05;;;;;;;;;;;22.00;77.80;;;;;;5116600;28;19940;-96
2022/08/03 01:26:51;;;;;;;;;;;22.00;78.00;;;;;;5115793;28;19944;-96
2022/08/03 01:29:35;;;;;;;;;;;22.00;77.70;;;;;;5116042;28;19996;-96
2022/08/03 01:32:11;;;;;;;;;;;22.10;77.20;;;;;;5115904;28;19957;-96
2022/08/03 01:34:42;;;;;;;;;;;22.20;76.70;;;;;;5097597;28;19941;-96
2022/08/03 01:37:09;;;;;;;;;;;22.30;77.00;;;;;;5115959;28;19937;-96
2022/08/03 01:39:36;;;;;;;;;;;22.20;77.60;;;;;;5116126;28;19972;-96
2022/08/03 01:42:05;;;;;;;;;;;22.20;78.60;;;;;;5116701;28;20436;-96
2022/08/03 01:44:35;;;;;;;;;;;22.10;79.20;;;;;;5116000;28;19939;-96
2022/08/03 01:47:02;;;;;;;;;;;22.10;78.80;;;;;;5116171;28;19984;-96
2022/08/03 01:49:29;;;;;;;;;;;22.20;77.70;;;;;;5115699;28;19936;-96
2022/08/03 01:51:55;;;;;;;;;;;22.10;77.40;;;;;;5115973;28;19989;-96
2022/08/03 01:54:22;;;;;;;;;;;22.00;77.40;;;;;;5115539;28;19991;-96
2022/08/03 01:56:47;;;;;;;;;;;22.00;77.40;;;;;;5115517;28;19937;-96
2022/08/03 01:59:14;;;;;;;;;;;21.90;78.00;;;;;;5115700;28;20013;-96
2022/08/03 02:01:40;;;;;;;;;;;21.80;78.10;;;;;;5115033;28;19936;-96
2022/08/03 02:04:06;;;;;;;;;;;21.80;78.10;;;;;;5115173;28;19939;-96
2022/08/03 02:06:33;;;;;;;;;;;21.80;77.90;;;;;;5096604;28;20018;-96
2022/08/03 02:08:59;;;;;;;;;;;21.80;78.30;;;;;;5115061;28;19977;-96
2022/08/03 02:11:26;;;;;;;;;;;21.80;78.60;;;;;;5114968;28;19936;-96
2022/08/03 02:13:52;;;;;;;;;;;21.80;79.30;;;;;;5096342;28;19949;-96
2022/08/03 02:16:18;;;;;;;;;;;21.70;79.70;;;;;;5115065;28;20291;-96
2022/08/03 02:18:45;;;;;;;;;;;21.60;79.60;;;;;;5114608;28;19988;-96
2022/08/03 02:21:10;;;;;;;;;;;21.50;79.70;;;;;;5114795;28;19959;-96
2022/08/03 02:23:36;;;;;;;;;;;21.50;79.80;;;;;;5114570;28;20371;-96
2022/08/03 02:26:03;;;;;;;;;;;21.40;79.90;;;;;;5115074;28;19950;-96
2022/08/03 02:28:34;;;;;;;;;;;21.50;80.10;;;;;;5114669;28;19941;-96
2022/08/03 02:31:01;;;;;;;;;;;21.50;80.30;;;;;;5114734;28;19937;-96
2022/08/03 02:33:36;;;;;;;;;;;21.40;81.20;;;;;;5114726;28;19942;-96
2022/08/03 02:36:03;;;;;;;;;;;21.40;81.20;;;;;;5114589;28;19955;-96
2022/08/03 02:38:33;;;;;;;;;;;21.10;81.20;;;;;;5114682;28;19939;-96
2022/08/03 02:40:59;;;;;;;;;;;21.10;81.60;;;;;;5114217;28;19950;-96
2022/08/03 02:43:25;;;;;;;;;;;21.00;82.00;;;;;;5114918;28;20382;-96
2022/08/03 02:45:52;;;;;;;;;;;21.10;81.80;;;;;;5114340;28;19947;-96
2022/08/03 02:48:21;;;;;;;;;;;21.10;81.90;;;;;;5096055;28;19942;-96
2022/08/03 02:50:47;;;;;;;;;;;21.20;81.70;;;;;;5114841;28;19944;-96
2022/08/03 02:53:14;;;;;;;;;;;21.20;81.60;;;;;;5114274;28;19941;-96
2022/08/03 02:55:40;;;;;;;;;;;21.20;80.80;;;;;;5114544;28;19957;-96
2022/08/03 02:58:06;;;;;;;;;;;21.10;80.70;;;;;;5114245;28;20464;-96
2022/08/03 03:00:32;;;;;;;;;;;21.00;80.90;;;;;;5114778;28;20063;-96
2022/08/03 03:02:58;;;;;;;;;;;21.10;80.70;;;;;;5096123;28;20038;-96
2022/08/03 03:05:25;;;;;;;;;;;21.10;81.30;;;;;;5115119;28;19948;-96
2022/08/03 03:07:51;;;;;;;;;;;21.10;80.80;;;;;;5114321;28;19945;-96
2022/08/03 03:10:16;;;;;;;;;;;21.20;80.20;;;;;;5114874;28;19947;-96
2022/08/03 03:12:43;;;;;;;;;;;21.30;79.90;;;;;;5114002;28;20082;-96
2022/08/03 03:15:09;;;;;;;;;;;21.20;80.90;;;;;;5095929;28;19933;-96
2022/08/03 03:17:36;;;;;;;;;;;21.10;80.70;;;;;;5114695;28;19939;-96
2022/08/03 03:20:02;;;;;;;;;;;21.00;81.10;;;;;;5113975;28;19957;-96
2022/08/03 03:22:28;;;;;;;;;;;20.90;81.50;;;;;;5114324;28;19939;-96
2022/08/03 03:24:54;;;;;;;;;;;20.90;81.70;;;;;;5113990;28;19945;-96
2022/08/03 03:27:20;;;;;;;;;;;20.80;81.90;;;;;;5116227;28;20305;-96
2022/08/03 03:29:46;;;;;;;;;;;20.80;81.90;;;;;;5117834;28;19938;-96
2022/08/03 03:32:11;;;;;;;;;;;20.80;82.20;;;;;;5118055;28;20383;-96
2022/08/03 03:34:37;;;;;;;;;;;20.80;82.00;;;;;;5117718;28;19937;-96
2022/08/03 03:37:04;;;;;;;;;;;20.90;82.10;;;;;;5099332;28;19963;-96
2022/08/03 03:39:29;;;;;;;;;;;20.90;82.10;;;;;;5117732;28;20450;-96
2022/08/03 03:41:56;;;;;;;;;;;20.80;82.30;;;;;;5118117;28;19992;-96
2022/08/03 03:44:25;;;;;;;;;;;20.80;81.50;;;;;;5099300;28;19943;-96
2022/08/03 03:46:50;;;;;;;;;;;20.70;81.80;;;;;;5117772;28;19960;-96
2022/08/03 03:49:16;;;;;;;;;;;20.70;82.10;;;;;;5117461;28;19938;-96
2022/08/03 03:51:42;;;;;;;;;;;20.70;82.10;;;;;;5117642;28;20384;-96
2022/08/03 03:54:07;;;;;;;;;;;20.60;82.50;;;;;;5117455;28;19941;-96
2022/08/03 03:56:33;;;;;;;;;;;20.60;82.80;;;;;;5117640;28;19980;-96
2022/08/03 03:58:58;;;;;;;;;;;20.60;82.80;;;;;;5098895;28;19947;-96
2022/08/03 04:01:24;;;;;;;;;;;20.70;82.60;;;;;;5117619;28;19949;-96
2022/08/03 04:03:50;;;;;;;;;;;20.60;82.70;;;;;;5117637;28;19936;-96
2022/08/03 04:11:52;;;;;;;;;;;20.60;82.90;;;;;;5118764;28;19966;-96
2022/08/03 04:14:19;;;;;;;;;;;20.60;82.80;;;;;;5117479;28;19941;-96
2022/08/03 04:16:47;;;;;;;;;;;20.60;83.00;;;;;;5117759;28;19936;-96
2022/08/03 04:19:18;;;;;;;;;;;20.60;83.00;;;;;;5117792;28;20387;-96
2022/08/03 04:21:47;;;;;;;;;;;20.60;83.10;;;;;;5118229;28;20028;-96
2022/08/03 04:24:14;;;;;;;;;;;20.50;82.40;;;;;;5117826;28;19939;-96
2022/08/03 04:26:40;;;;;;;;;;;20.60;82.50;;;;;;5118217;28;19939;-96
2022/08/03 04:29:08;;;;;;;;;;;20.60;82.80;;;;;;5118023;28;19941;-96
2022/08/03 04:31:34;;;;;;;;;;;20.70;82.60;;;;;;5118786;28;19938;-96
2022/08/03 04:34:00;;;;;;;;;;;20.80;82.70;;;;;;5118258;28;20044;-96
2022/08/03 04:36:30;;;;;;;;;;;20.80;82.70;;;;;;5118517;28;19960;-96
2022/08/03 04:39:02;;;;;;;;;;;20.80;82.80;;;;;;5119934;28;19959;-96
2022/08/03 04:41:28;;;;;;;;;;;20.90;82.90;;;;;;5117440;28;19987;-96
2022/08/03 04:43:55;;;;;;;;;;;20.90;82.60;;;;;;5116675;28;19974;-96
2022/08/03 04:46:22;;;;;;;;;;;21.00;82.40;;;;;;5116448;28;20448;-96
2022/08/03 04:48:48;;;;;;;;;;;21.10;81.10;;;;;;5098154;28;20424;-96
2022/08/03 04:51:13;;;;;;;;;;;21.20;80.50;;;;;;5116405;28;19937;-96
2022/08/03 04:53:39;;;;;;;;;;;21.30;80.80;;;;;;5116808;28;19944;-96
2022/08/03 04:56:05;;;;;;;;;;;21.20;81.70;;;;;;5116079;28;20510;-96
2022/08/03 04:58:31;;;;;;;;;;;21.20;81.70;;;;;;5115679;28;19943;-96
2022/08/03 05:00:57;;;;;;;;;;;21.20;81.70;;;;;;5116055;28;19961;-96
2022/08/03 05:03:23;;;;;;;;;;;21.20;81.60;;;;;;5097648;28;19964;-96
2022/08/03 05:05:49;;;;;;;;;;;21.30;81.00;;;;;;5115741;28;19938;-96
2022/08/03 05:08:14;;;;;;;;;;;21.30;81.10;;;;;;5116577;28;19997;-96
2022/08/03 05:10:40;;;;;;;;;;;21.40;81.20;;;;;;5097432;28;20030;-96
2022/08/03 05:13:10;;;;;;;;;;;21.50;81.40;;;;;;5116166;28;19947;-96
2022/08/03 05:15:36;;;;;;;;;;;21.50;81.50;;;;;;5116590;28;19938;-96
2022/08/03 05:18:01;;;;;;;;;;;21.50;81.20;;;;;;5115479;28;19945;-96
2022/08/03 05:20:27;;;;;;;;;;;21.60;81.30;;;;;;5115282;28;20415;-95
2022/08/03 05:22:53;;;;;;;;;;;21.80;80.70;;;;;;5115397;28;20310;-96
2022/08/03 05:25:18;;;;;;;;;;;21.90;80.10;;;;;;5115774;28;20322;-96
2022/08/03 05:27:44;;;;;;;;;;;22.00;79.30;;;;;;5115482;28;20399;-96
2022/08/03 05:30:10;;;;;;;;;;;22.20;77.90;;;;;;5096603;28;20285;-96
2022/08/03 05:32:35;;;;;;;;;;;22.30;77.70;;;;;;5115901;28;20435;-96
2022/08/03 05:35:01;;;;;;;;;;;22.40;77.40;;;;;;5123230;28;20026;-96
2022/08/03 05:37:26;;;;;;;;;;;22.60;76.40;;;;;;5115892;28;19954;-96
2022/08/03 06:18:30;;;;;;;;;;;24.20;71.20;;;;;;5372236;23;19979;-96
2022/08/03 06:21:02;;;;;;;;;;;24.30;70.20;;;;;;5015611;28;19988;-96
2022/08/03 06:23:29;;;;;;;;;;;24.30;68.00;;;;;;5036439;28;19959;-96
2022/08/03 06:25:55;;;;;;;;;;;24.50;67.60;;;;;;5032438;23;19990;-96
2022/08/03 06:28:21;;;;;;;;;;;24.60;67.10;;;;;;5297803;23;19985;-96
2022/08/03 06:30:46;;;;;;;;;;;24.70;67.00;;;;;;4998958;28;19950;-96
2022/08/03 06:33:12;;;;;;;;;;;25.00;66.40;;;;;;5018059;28;19967;-96
2022/08/03 06:35:37;;;;;;;;;;;25.30;65.90;;;;;;5018177;28;20025;-96
2022/08/03 06:38:03;;;;;;;;;;;25.50;65.10;;;;;;5014378;28;19942;-96
2022/08/03 06:40:30;;;;;;;;;;;25.70;64.20;;;;;;5014216;28;20451;-95
2022/08/03 06:42:56;;;;;;;;;;;25.80;64.00;;;;;;5014154;28;20438;-96
2022/08/03 06:45:22;;;;;;;;;;;26.00;63.70;;;;;;5014242;28;20408;-95
2022/08/03 06:47:58;;;;;;;;;;;26.10;62.80;;;;;;5014118;28;19963;-96
2022/08/03 06:50:24;;;;;;;;;;;26.20;64.00;;;;;;5013201;28;19951;-96
2022/08/03 06:52:49;;;;;;;;;;;26.20;63.00;;;;;;5014291;28;19944;-95
2022/08/03 06:55:15;;;;;;;;;;;26.20;62.70;;;;;;5014202;28;20385;-96
2022/08/03 06:57:41;;;;;;;;;;;26.20;62.40;;;;;;4996093;28;20516;-96
2022/08/03 07:00:08;;;;;;;;;;;26.20;61.70;;;;;;5013937;28;20394;-96
2022/08/03 07:02:34;;;;;;;;;;;26.20;60.90;;;;;;5015947;28;19986;-96
2022/08/03 07:04:59;;;;;;;;;;;26.20;60.70;;;;;;5017864;28;19939;-96
2022/08/03 07:07:25;;;;;;;;;;;26.20;60.40;;;;;;5017826;28;19969;-95
2022/08/03 07:09:50;;;;;;;;;;;26.20;59.80;;;;;;5000117;28;20302;-96
2022/08/03 07:12:16;;;;;;;;;;;26.30;58.70;;;;;;5018047;28;19944;-95
2022/08/03 07:14:42;;;;;;;;;;;26.40;59.10;;;;;;5017633;28;19936;-96
2022/08/03 07:17:07;;;;;;;;;;;26.50;59.20;;;;;;5017022;28;19944;-95
2022/08/03 07:19:33;;;;;;;;;;;26.50;59.00;;;;;;5017833;28;19936;-96
2022/08/03 07:22:02;;;;;;;;;;;26.70;58.80;;;;;;5012489;28;19962;-96
2022/08/03 07:24:28;;;;;;;;;;;26.80;58.70;;;;;;5017495;28;19953;-96
2022/08/03 07:26:54;;;;;;;;;;;27.00;58.50;;;;;;5017403;28;19935;-96
2022/08/03 07:29:19;;;;;;;;;;;27.10;58.20;;;;;;5017334;28;19970;-96
2022/08/03 07:31:45;;;;;;;;;;;27.20;55.30;;;;;;5018122;28;19952;-96
2022/08/03 07:34:11;;;;;;;;;;;27.30;54.60;;;;;;5017457;28;20077;-96
2022/08/03 07:36:36;;;;;;;;;;;27.50;54.70;;;;;;5017147;28;19941;-96
2022/08/03 07:39:02;;;;;;;;;;;27.60;52.40;;;;;;5015613;28;19941;-95
2022/08/03 07:41:28;;;;;;;;;;;27.60;54.20;;;;;;5016767;28;20069;-96
2022/08/03 07:43:53;;;;;;;;;;;27.60;52.70;;;;;;5017096;28;20027;-96
2022/08/03 07:46:19;;;;;;;;;;;27.70;53.00;;;;;;4999526;28;19943;-96
2022/08/03 07:48:45;;;;;;;;;;;27.70;53.30;;;;;;5017135;28;19948;-96
2022/08/03 07:51:10;;;;;;;;;;;27.70;53.70;;;;;;5016971;28;19943;-96
2022/08/03 07:53:36;;;;;;;;;;;27.70;53.90;;;;;;5017019;28;19987;-95
2022/08/03 07:56:01;;;;;;;;;;;27.80;53.10;;;;;;5016611;28;19938;-96
2022/08/03 07:58:27;;;;;;;;;;;27.80;52.40;;;;;;5016180;28;19944;-96
2022/08/03 08:00:52;;;;;;;;;;;27.90;52.20;;;;;;5017476;28;19956;-96
2022/08/03 08:03:18;;;;;;;;;;;27.90;52.70;;;;;;5017366;28;20037;-96
2022/08/03 08:05:44;;;;;;;;;;;27.90;51.70;;;;;;5016740;28;19943;-96
2022/08/03 08:08:10;;;;;;;;;;;28.00;51.00;;;;;;5016666;28;19943;-95
2022/08/03 08:10:35;;;;;;;;;;;28.00;50.70;;;;;;4999103;28;19955;-96
2022/08/03 08:13:01;;;;;;;;;;;28.10;51.40;;;;;;5015886;28;19939;-96
2022/08/03 08:15:27;;;;;;;;;;;28.20;51.70;;;;;;5016553;28;20037;-96
2022/08/03 08:17:54;;;;;;;;;;;28.30;51.00;;;;;;5016575;28;19937;-96
2022/08/03 08:20:20;;;;;;;;;;;28.50;50.20;;;;;;4998715;28;20011;-96
2022/08/03 08:22:46;;;;;;;;;;;28.50;50.50;;;;;;5011132;28;19938;-96
2022/08/03 08:25:11;;;;;;;;;;;28.60;50.10;;;;;;4996766;28;20295;-96
2022/08/03 08:27:44;;;;;;;;;;;28.60;49.70;;;;;;4996870;28;19945;-96
2022/08/03 08:30:10;;;;;;;;;;;28.70;49.70;;;;;;4995996;28;19950;-95
2022/08/03 08:32:36;;;;;;;;;;;28.70;49.20;;;;;;4996653;28;19938;-96
2022/08/03 08:35:02;;;;;;;;;;;28.70;49.10;;;;;;4996957;28;20351;-95
2022/08/03 08:37:28;;;;;;;;;;;28.70;49.00;;;;;;4996697;28;19960;-96
2022/08/03 08:39:55;;;;;;;;;;;28.80;49.00;;;;;;4978962;28;19976;-96
2022/08/03 08:42:20;;;;;;;;;;;28.80;49.80;;;;;;4996444;28;19945;-95
2022/08/03 08:44:46;;;;;;;;;;;28.80;52.40;;;;;;4996455;28;20287;-95
2022/08/03 08:47:12;;;;;;;;;;;28.90;49.60;;;;;;4995961;28;20316;-96
2022/08/03 08:49:38;;;;;;;;;;;29.00;49.10;;;;;;4996274;28;20323;-96
2022/08/03 08:52:05;;;;;;;;;;;29.10;49.90;;;;;;4996191;28;19948;-96
2022/08/03 08:54:32;;;;;;;;;;;29.20;49.70;;;;;;4996268;28;19968;-96
2022/08/03 08:57:00;;;;;;;;;;;29.40;48.50;;;;;;4980299;28;19945;-96
2022/08/03 08:59:32;;;;;;;;;;;29.50;49.60;;;;;;5077397;23;20073;-96
2022/08/03 09:17:41;;;;;;;;;;;29.70;47.70;;;;;;5727819;23;19959;-96
2022/08/03 09:20:09;;;;;;;;;;;29.80;48.50;;;;;;5016105;28;19970;-96
2022/08/03 09:30:21;;;;;;;;;;;30.00;43.90;;;;;;5422617;23;19985;-96
2022/08/03 09:38:27;;;;;;;;;;;30.20;44.80;;;;;;5080025;23;19991;-96
2022/08/03 09:40:54;;;;;;;;;;;30.20;44.90;;;;;;5013097;28;20042;-96
2022/08/03 09:43:27;;;;;;;;;;;30.30;43.30;;;;;;5029271;28;19941;-96
2022/08/03 12:15:11;;;;;;;;;;;34.10;35.60;;;;;;5364112;23;20007;-96
2022/08/03 12:17:38;;;;;;;;;;;34.10;35.10;;;;;;5015017;28;19947;-96
2022/08/03 12:20:15;;;;;;;;;;;34.20;34.90;;;;;;5018324;28;19966;-96
2022/08/03 14:06:12;;;;;;;;;;;42.20;23.50;;;;;;5861104;23;20053;-96
2022/08/03 14:08:38;;;;;;;;;;;41.10;24.40;;;;;;4985895;28;19948;-96
2022/08/03 14:11:03;;;;;;;;;;;39.80;25.40;;;;;;4997402;28;20100;-96
2022/08/03 14:13:29;;;;;;;;;;;40.20;25.80;;;;;;4997171;28;19977;-96
2022/08/03 14:15:55;;;;;;;;;;;41.10;24.00;;;;;;4998885;28;20009;-96
2022/08/03 14:18:21;;;;;;;;;;;41.30;24.10;;;;;;4983317;28;20319;-96
2022/08/03 14:20:50;;;;;;;;;;;40.90;25.00;;;;;;5001988;28;20041;-96
2022/08/03 16:22:55;;;;;;;;;;;39.40;29.40;;;;;;5904427;22;9395618;-96
2022/08/03 16:25:32;;;;;;;;;;;39.00;29.80;;;;;;6283533;22;19942;-96
2022/08/03 16:28:03;;;;;;;;;;;38.40;30.50;;;;;;6311906;22;19955;-96
2022/08/03 16:30:30;;;;;;;;;;;38.20;30.60;;;;;;6284518;22;19938;-96
2022/08/03 16:33:01;;;;;;;;;;;38.10;30.30;;;;;;6284781;22;19957;-96
2022/08/03 16:35:28;;;;;;;;;;;37.60;31.50;;;;;;6306145;22;19941;-96
2022/08/03 16:37:58;;;;;;;;;;;37.50;31.20;;;;;;6285415;22;19937;-96
2022/08/03 16:40:31;;;;;;;;;;;37.20;31.60;;;;;;6285148;22;19946;-96
2022/08/03 16:42:58;;;;;;;;;;;37.10;30.80;;;;;;6282441;22;19942;-96
2022/08/03 16:45:27;;;;;;;;;;;37.10;30.10;;;;;;6283382;22;19954;-96
2022/08/03 16:47:54;;;;;;;;;;;36.90;30.90;;;;;;6285297;22;19962;-96
2022/08/03 16:50:27;;;;;;;;;;;37.00;30.20;;;;;;6283845;22;19962;-96
2022/08/03 16:52:55;;;;;;;;;;;36.70;29.60;;;;;;6311434;22;19937;-96
2022/08/03 16:55:23;;;;;;;;;;;36.40;30.80;;;;;;6285266;22;19977;-96
2022/08/03 16:57:50;;;;;;;;;;;36.30;30.30;;;;;;6311149;22;19962;-96
2022/08/03 17:00:22;;;;;;;;;;;36.30;31.00;;;;;;6312210;22;20343;-96
2022/08/03 17:02:53;;;;;;;;;;;36.30;31.20;;;;;;6310268;22;19959;-96
2022/08/03 17:05:21;;;;;;;;;;;36.20;31.20;;;;;;6282357;22;19945;-96
2022/08/03 17:07:49;;;;;;;;;;;36.10;31.20;;;;;;6284184;22;19957;-96
2022/08/03 17:10:16;;;;;;;;;;;36.10;31.40;;;;;;6284743;22;19926;-96
2022/08/03 17:12:43;;;;;;;;;;;36.10;30.90;;;;;;6285332;22;19926;-96
2022/08/03 17:15:10;;;;;;;;;;;36.10;31.90;;;;;;6282093;22;19935;-96
2022/08/03 17:17:39;;;;;;;;;;;35.90;31.00;;;;;;6283328;22;19942;-96
2022/08/03 17:20:09;;;;;;;;;;;35.80;30.70;;;;;;6276712;22;19938;-96
2022/08/03 17:22:36;;;;;;;;;;;35.70;31.50;;;;;;6273991;22;19970;-96
2022/08/03 17:25:05;;;;;;;;;;;35.50;31.60;;;;;;6274154;22;19946;-96
2022/08/03 17:27:32;;;;;;;;;;;35.40;33.00;;;;;;6274264;22;19955;-96
2022/08/03 17:30:09;;;;;;;;;;;35.10;32.90;;;;;;6271040;22;19960;-96
2022/08/03 17:32:41;;;;;;;;;;;34.90;32.20;;;;;;6294238;22;19945;-96
2022/08/03 17:35:07;;;;;;;;;;;34.70;33.30;;;;;;6274283;22;19979;-96
2022/08/03 17:37:34;;;;;;;;;;;34.60;32.90;;;;;;6274627;22;20010;-96
2022/08/03 17:40:03;;;;;;;;;;;34.40;33.30;;;;;;6274715;22;19959;-96
2022/08/03 17:42:32;;;;;;;;;;;34.10;34.30;;;;;;6273601;22;19978;-96
2022/08/03 17:44:59;;;;;;;;;;;33.90;34.40;;;;;;6272846;22;19961;-96
2022/08/03 17:47:25;;;;;;;;;;;33.80;34.20;;;;;;6272595;22;20002;-96
2022/08/03 17:49:51;;;;;;;;;;;33.70;34.10;;;;;;6295700;22;19953;-96
2022/08/03 17:52:26;;;;;;;;;;;33.60;33.80;;;;;;6266098;22;19976;-96
2022/08/03 17:55:10;;;;;;;;;;;33.40;34.00;;;;;;6291672;22;19937;-96
2022/08/03 17:57:39;;;;;;;;;;;33.20;34.90;;;;;;6289462;22;20030;-96
2022/08/03 18:03:13;;;;;;;;;;;32.80;33.60;;;;;;6242126;22;19935;-96
2022/08/03 18:05:40;;;;;;;;;;;32.70;34.10;;;;;;6290087;22;19979;-96
2022/08/03 18:08:06;;;;;;;;;;;32.70;33.60;;;;;;6260842;22;19987;-96
2022/08/03 18:10:33;;;;;;;;;;;32.50;35.00;;;;;;6259135;22;20013;-96
2022/08/03 18:13:03;;;;;;;;;;;32.30;36.30;;;;;;6285810;22;19938;-96
2022/08/03 18:15:34;;;;;;;;;;;32.20;37.40;;;;;;6283952;22;19961;-96
2022/08/03 18:18:04;;;;;;;;;;;31.90;38.10;;;;;;6283945;22;19934;-96
2022/08/03 18:20:30;;;;;;;;;;;31.90;38.70;;;;;;6256024;22;19974;-96
2022/08/03 18:22:57;;;;;;;;;;;31.70;39.40;;;;;;6282274;22;19941;-96
2022/08/03 18:25:23;;;;;;;;;;;31.60;38.60;;;;;;6282176;22;19979;-96
2022/08/03 18:27:49;;;;;;;;;;;31.30;41.30;;;;;;6255247;22;19953;-96
2022/08/03 18:30:15;;;;;;;;;;;31.20;44.00;;;;;;6282306;22;19937;-96
2022/08/03 18:32:42;;;;;;;;;;;30.90;42.10;;;;;;6253030;22;19936;-96
2022/08/03 18:35:07;;;;;;;;;;;30.60;45.30;;;;;;6253413;22;19994;-96
2022/08/03 18:37:34;;;;;;;;;;;30.40;47.30;;;;;;6280452;22;19952;-96
2022/08/03 18:40:01;;;;;;;;;;;30.30;46.40;;;;;;6280050;22;20027;-96
2022/08/03 18:42:27;;;;;;;;;;;30.20;42.20;;;;;;6280529;22;19939;-96
2022/08/03 18:44:53;;;;;;;;;;;30.10;41.20;;;;;;6280315;22;19948;-96
2022/08/03 18:47:40;;;;;;;;;;;30.10;40.80;;;;;;6279602;22;19960;-96
2022/08/03 18:50:15;;;;;;;;;;;30.00;43.30;;;;;;6279627;22;19973;-96
2022/08/03 18:53:01;;;;;;;;;;;29.90;45.90;;;;;;6279520;22;19958;-96
2022/08/03 18:55:31;;;;;;;;;;;29.80;46.50;;;;;;6279158;22;19971;-96
2022/08/03 18:58:13;;;;;;;;;;;29.70;47.00;;;;;;6278875;22;19980;-96
2022/08/03 19:00:50;;;;;;;;;;;29.40;47.80;;;;;;6278912;22;19935;-96
2022/08/03 19:03:21;;;;;;;;;;;29.20;49.30;;;;;;6251354;22;20022;-96
2022/08/03 19:05:58;;;;;;;;;;;29.00;49.70;;;;;;6279277;22;19937;-96
2022/08/03 19:08:29;;;;;;;;;;;28.90;49.50;;;;;;6278314;22;19964;-96
2022/08/03 19:10:59;;;;;;;;;;;28.70;49.30;;;;;;6278746;22;19946;-96
2022/08/03 19:13:29;;;;;;;;;;;28.50;50.60;;;;;;6278386;22;19954;-96
2022/08/03 19:15:56;;;;;;;;;;;28.50;51.50;;;;;;6278829;22;19934;-96
2022/08/03 19:18:21;;;;;;;;;;;28.40;51.80;;;;;;6278375;22;19945;-96
2022/08/03 19:20:48;;;;;;;;;;;28.40;53.50;;;;;;6278087;22;20014;-96
2022/08/03 19:23:14;;;;;;;;;;;28.30;55.10;;;;;;6278487;22;19934;-96
2022/08/03 19:25:40;;;;;;;;;;;28.20;54.60;;;;;;6278598;22;19961;-96
2022/08/03 19:28:07;;;;;;;;;;;28.00;53.50;;;;;;6278431;22;19960;-96
2022/08/03 19:30:36;;;;;;;;;;;27.80;53.70;;;;;;6278408;22;19963;-96
2022/08/03 19:33:03;;;;;;;;;;;27.70;53.70;;;;;;6278035;22;19934;-96
2022/08/03 19:35:29;;;;;;;;;;;27.60;53.90;;;;;;6277849;22;20376;-96
2022/08/03 19:37:55;;;;;;;;;;;27.40;53.90;;;;;;6278280;22;19963;-96
2022/08/03 19:40:20;;;;;;;;;;;27.40;55.00;;;;;;6250429;22;19940;-96
2022/08/03 19:42:49;;;;;;;;;;;27.30;57.60;;;;;;6277720;22;20365;-96
2022/08/03 19:45:19;;;;;;;;;;;27.30;55.90;;;;;;6277915;22;19935;-96
2022/08/03 19:47:46;;;;;;;;;;;27.30;57.40;;;;;;6277444;22;19957;-96
2022/08/03 19:50:12;;;;;;;;;;;27.20;57.50;;;;;;6277884;22;19953;-96
2022/08/03 19:52:38;;;;;;;;;;;27.30;57.60;;;;;;6277542;22;20361;-96
2022/08/03 19:55:06;;;;;;;;;;;27.40;57.60;;;;;;6278140;22;19933;-96
2022/08/03 19:57:32;;;;;;;;;;;27.30;58.20;;;;;;6277326;22;20315;-96
2022/08/03 19:59:58;;;;;;;;;;;27.20;59.60;;;;;;6277795;22;20004;-96
2022/08/03 20:02:24;;;;;;;;;;;26.90;58.70;;;;;;6277501;22;19936;-96
2022/08/03 20:04:50;;;;;;;;;;;26.70;61.10;;;;;;6277103;22;19946;-96
2022/08/03 20:07:15;;;;;;;;;;;26.60;62.20;;;;;;6277679;22;19938;-96
2022/08/03 20:09:42;;;;;;;;;;;26.60;61.50;;;;;;6250299;22;20271;-96
2022/08/03 20:12:08;;;;;;;;;;;26.60;62.10;;;;;;6278295;22;19931;-96
2022/08/03 20:14:34;;;;;;;;;;;26.50;61.40;;;;;;6252158;22;19939;-96
2022/08/03 20:17:00;;;;;;;;;;;26.30;62.00;;;;;;6279806;22;19943;-96
2022/08/03 20:19:25;;;;;;;;;;;26.30;59.40;;;;;;6279179;22;19972;-96
2022/08/03 20:21:52;;;;;;;;;;;26.30;62.40;;;;;;6279139;22;19997;-96
2022/08/03 20:24:21;;;;;;;;;;;26.30;62.30;;;;;;6279910;22;19938;-96
2022/08/03 20:26:47;;;;;;;;;;;26.20;64.30;;;;;;6278487;22;19933;-96
2022/08/03 20:29:14;;;;;;;;;;;26.10;63.30;;;;;;6279488;22;20273;-96
2022/08/03 20:31:40;;;;;;;;;;;26.10;62.80;;;;;;6278379;22;19926;-96
2022/08/03 20:34:05;;;;;;;;;;;26.00;62.10;;;;;;6278872;22;19941;-96
2022/08/03 20:36:31;;;;;;;;;;;25.90;60.10;;;;;;6277954;22;20023;-96
2022/08/03 20:38:57;;;;;;;;;;;25.90;60.30;;;;;;6278584;22;19930;-96
2022/08/03 20:41:23;;;;;;;;;;;25.80;58.40;;;;;;6278557;22;20240;-96
2022/08/03 20:43:48;;;;;;;;;;;25.80;58.40;;;;;;6278821;22;19938;-96
2022/08/03 20:46:15;;;;;;;;;;;25.80;58.30;;;;;;6278617;22;19934;-96
2022/08/03 20:48:41;;;;;;;;;;;26.00;57.80;;;;;;6251929;22;19969;-96
2022/08/03 20:51:07;;;;;;;;;;;26.20;60.40;;;;;;6279760;22;19938;-96
2022/08/03 20:53:33;;;;;;;;;;;25.80;62.70;;;;;;6278503;22;19941;-96
2022/08/03 20:55:59;;;;;;;;;;;25.80;60.90;;;;;;6280928;22;19935;-96
2022/08/03 20:58:25;;;;;;;;;;;25.90;62.00;;;;;;6280596;22;19929;-96
2022/08/03 21:00:51;;;;;;;;;;;25.90;63.10;;;;;;6281678;22;19983;-96
2022/08/03 21:03:17;;;;;;;;;;;25.80;64.90;;;;;;6281145;22;19938;-96
2022/08/03 21:05:44;;;;;;;;;;;25.40;64.80;;;;;;6282067;22;20348;-96
2022/08/03 21:08:12;;;;;;;;;;;25.30;65.50;;;;;;6281764;22;19936;-96
2022/08/03 21:10:40;;;;;;;;;;;25.30;65.80;;;;;;6282860;22;19954;-96
2022/08/03 21:13:12;;;;;;;;;;;25.20;65.00;;;;;;6281839;22;19998;-96
2022/08/03 21:15:38;;;;;;;;;;;25.20;65.40;;;;;;6253428;22;19942;-96
2022/08/03 21:18:09;;;;;;;;;;;25.10;65.80;;;;;;6281719;22;19988;-96
2022/08/03 21:20:35;;;;;;;;;;;25.10;64.70;;;;;;6280128;22;19968;-96
2022/08/03 21:23:02;;;;;;;;;;;25.20;65.10;;;;;;6279972;22;19959;-96
2022/08/03 21:25:28;;;;;;;;;;;25.30;65.50;;;;;;6278880;22;20000;-96
2022/08/03 21:27:54;;;;;;;;;;;25.30;66.80;;;;;;6279510;22;20019;-96
2022/08/03 21:30:21;;;;;;;;;;;25.30;66.90;;;;;;6278845;22;20355;-96
2022/08/03 21:32:47;;;;;;;;;;;25.30;67.20;;;;;;6279279;22;19939;-96
2022/08/03 21:35:12;;;;;;;;;;;25.40;67.00;;;;;;6278949;22;19938;-96
2022/08/03 21:37:38;;;;;;;;;;;25.40;67.20;;;;;;6279092;22;20382;-96
2022/08/03 21:40:05;;;;;;;;;;;25.30;67.40;;;;;;6279442;22;19938;-96
2022/08/03 21:42:31;;;;;;;;;;;24.80;68.80;;;;;;6279038;22;19957;-96
2022/08/03 21:44:56;;;;;;;;;;;24.70;67.70;;;;;;6279002;22;20341;-96
2022/08/03 21:47:23;;;;;;;;;;;24.80;68.40;;;;;;6251504;22;19945;-96